Decoded Metar for LDOS (OSIJEK in CROATIA) (IATA:OSI) | Meteo·Mobile Aviation Weather
aviador You're here:

LDOS Decoded Metar

OSIJEK in CROATIA
Report Time2018-11-12 18:30:00
UTC Time2018-11-12 18:52:14
Flight Rules vfr VFR
Wind120° at 03 kt
W.Decomp.*RWY 11: 3.0 kt HW 0.4 kt RCW
W.Rank120° ranks 6
Current wind is below 120° avg. (6.2)
Visibility9999 m
Phenomena:N/A
Clouds:N/A
Expected CloudBase > 2,000 ft AGL from Temp-Dew spread
CeilingNone
Temp11°C (ISA -3)
Dew Point06°C (72% RH)
AAT9.0°C
QNH1025 hPa
Density Alt-394 ft
Elevation292 ft
Report Wrong Elevation
Raw Report
LDOS 121830Z 12003KT CAVOK 11/06 Q1025=

Extra information for LDOS:More info

Metar Taf Metar & Taf Last 4 Metars F.Rules Stats Wind Profile Meteogram Temp Stats Airport Information Weather charts Add Link Nearby VenuesMetar ALERT Operation Metar Decoded Social comments